sensor_id;sensor_type;location;lat;lon;timestamp;temperature;humidity
3648;DHT22;1840;48.892;15.312;2023-02-08T00:02:23;-11.10;87.40
3648;DHT22;1840;48.892;15.312;2023-02-08T00:04:51;-11.10;87.20
3648;DHT22;1840;48.892;15.312;2023-02-08T00:07:19;-11.20;87.30
3648;DHT22;1840;48.892;15.312;2023-02-08T00:09:48;-11.30;86.80
3648;DHT22;1840;48.892;15.312;2023-02-08T00:12:16;-11.30;86.90
3648;DHT22;1840;48.892;15.312;2023-02-08T00:14:44;-11.50;86.60
3648;DHT22;1840;48.892;15.312;2023-02-08T00:17:12;-11.60;86.60
3648;DHT22;1840;48.892;15.312;2023-02-08T00:19:40;-11.80;87.50
3648;DHT22;1840;48.892;15.312;2023-02-08T00:22:08;-11.80;87.90
3648;DHT22;1840;48.892;15.312;2023-02-08T00:24:36;-11.70;88.00
3648;DHT22;1840;48.892;15.312;2023-02-08T00:27:06;-11.70;87.20
3648;DHT22;1840;48.892;15.312;2023-02-08T00:29:34;-11.60;87.00
3648;DHT22;1840;48.892;15.312;2023-02-08T00:32:02;-11.50;87.10
3648;DHT22;1840;48.892;15.312;2023-02-08T00:34:30;-11.60;87.00
3648;DHT22;1840;48.892;15.312;2023-02-08T00:36:58;-11.60;87.30
3648;DHT22;1840;48.892;15.312;2023-02-08T00:39:26;-11.50;87.30
3648;DHT22;1840;48.892;15.312;2023-02-08T00:41:54;-11.40;88.00
3648;DHT22;1840;48.892;15.312;2023-02-08T00:44:23;-11.40;87.50
3648;DHT22;1840;48.892;15.312;2023-02-08T00:46:51;-11.50;87.30
3648;DHT22;1840;48.892;15.312;2023-02-08T00:49:20;-11.50;87.10
3648;DHT22;1840;48.892;15.312;2023-02-08T00:51:48;-11.70;86.60
3648;DHT22;1840;48.892;15.312;2023-02-08T00:54:18;-11.60;88.30
3648;DHT22;1840;48.892;15.312;2023-02-08T00:56:46;-11.30;88.60
3648;DHT22;1840;48.892;15.312;2023-02-08T00:59:14;-11.20;88.50
3648;DHT22;1840;48.892;15.312;2023-02-08T01:01:44;-11.10;88.30
3648;DHT22;1840;48.892;15.312;2023-02-08T01:04:12;-11.00;88.90
3648;DHT22;1840;48.892;15.312;2023-02-08T01:06:40;-11.10;88.30
3648;DHT22;1840;48.892;15.312;2023-02-08T01:09:08;-11.10;89.10
3648;DHT22;1840;48.892;15.312;2023-02-08T01:11:36;-11.00;89.70
3648;DHT22;1840;48.892;15.312;2023-02-08T01:14:04;-11.00;89.80
3648;DHT22;1840;48.892;15.312;2023-02-08T01:16:33;-10.80;90.20
3648;DHT22;1840;48.892;15.312;2023-02-08T01:19:03;-10.70;90.10
3648;DHT22;1840;48.892;15.312;2023-02-08T01:21:33;-10.50;90.20
3648;DHT22;1840;48.892;15.312;2023-02-08T01:24:02;-10.30;90.20
3648;DHT22;1840;48.892;15.312;2023-02-08T01:26:30;-10.30;89.90
3648;DHT22;1840;48.892;15.312;2023-02-08T01:28:59;-10.10;90.00
3648;DHT22;1840;48.892;15.312;2023-02-08T01:31:29;-10.00;89.80
3648;DHT22;1840;48.892;15.312;2023-02-08T01:33:58;-10.00;89.80
3648;DHT22;1840;48.892;15.312;2023-02-08T01:36:28;-9.80;90.10
3648;DHT22;1840;48.892;15.312;2023-02-08T01:38:57;-9.80;90.10
3648;DHT22;1840;48.892;15.312;2023-02-08T01:41:27;-9.80;90.10
3648;DHT22;1840;48.892;15.312;2023-02-08T01:44:05;-9.80;90.20
3648;DHT22;1840;48.892;15.312;2023-02-08T01:46:35;-9.80;90.20
3648;DHT22;1840;48.892;15.312;2023-02-08T01:49:06;-9.60;90.50
3648;DHT22;1840;48.892;15.312;2023-02-08T01:51:40;-9.60;90.80
3648;DHT22;1840;48.892;15.312;2023-02-08T01:54:11;-9.40;90.40
3648;DHT22;1840;48.892;15.312;2023-02-08T01:56:42;-9.30;90.10
3648;DHT22;1840;48.892;15.312;2023-02-08T01:59:16;-9.30;90.20
3648;DHT22;1840;48.892;15.312;2023-02-08T02:01:46;-9.20;90.30
3648;DHT22;1840;48.892;15.312;2023-02-08T02:04:15;-9.10;90.30
3648;DHT22;1840;48.892;15.312;2023-02-08T02:06:46;-9.30;90.50
3648;DHT22;1840;48.892;15.312;2023-02-08T02:09:19;-9.30;90.40
3648;DHT22;1840;48.892;15.312;2023-02-08T02:11:49;-9.30;90.50
3648;DHT22;1840;48.892;15.312;2023-02-08T02:14:18;-9.20;90.10
3648;DHT22;1840;48.892;15.312;2023-02-08T02:16:47;-9.50;89.70
3648;DHT22;1840;48.892;15.312;2023-02-08T02:19:25;-9.60;90.20
3648;DHT22;1840;48.892;15.312;2023-02-08T02:22:06;-9.70;89.50
3648;DHT22;1840;48.892;15.312;2023-02-08T02:25:02;-9.90;90.10
3648;DHT22;1840;48.892;15.312;2023-02-08T02:27:53;-9.90;90.00
3648;DHT22;1840;48.892;15.312;2023-02-08T02:30:50;-10.00;89.80
3648;DHT22;1840;48.892;15.312;2023-02-08T02:33:37;-10.10;89.80
3648;DHT22;1840;48.892;15.312;2023-02-08T02:36:13;-10.10;89.30
3648;DHT22;1840;48.892;15.312;2023-02-08T02:38:52;-10.10;89.50
3648;DHT22;1840;48.892;15.312;2023-02-08T02:41:36;-10.30;90.00
3648;DHT22;1840;48.892;15.312;2023-02-08T02:44:31;-10.40;90.50
3648;DHT22;1840;48.892;15.312;2023-02-08T02:47:07;-10.50;90.70
3648;DHT22;1840;48.892;15.312;2023-02-08T02:49:46;-10.30;90.30
3648;DHT22;1840;48.892;15.312;2023-02-08T02:52:18;-10.30;90.00
3648;DHT22;1840;48.892;15.312;2023-02-08T02:54:51;-10.30;89.40
3648;DHT22;1840;48.892;15.312;2023-02-08T02:57:24;-10.40;89.10
3648;DHT22;1840;48.892;15.312;2023-02-08T02:59:53;-10.40;89.70
3648;DHT22;1840;48.892;15.312;2023-02-08T03:02:21;-10.40;89.20
3648;DHT22;1840;48.892;15.312;2023-02-08T03:04:53;-10.50;89.10
3648;DHT22;1840;48.892;15.312;2023-02-08T03:07:36;-10.60;89.90
3648;DHT22;1840;48.892;15.312;2023-02-08T03:10:23;-10.50;89.80
3648;DHT22;1840;48.892;15.312;2023-02-08T03:13:00;-10.50;89.70
3648;DHT22;1840;48.892;15.312;2023-02-08T03:15:38;-10.60;88.90
3648;DHT22;1840;48.892;15.312;2023-02-08T03:18:18;-10.80;89.60
3648;DHT22;1840;48.892;15.312;2023-02-08T03:20:55;-10.60;89.40
3648;DHT22;1840;48.892;15.312;2023-02-08T03:23:27;-10.40;89.40
3648;DHT22;1840;48.892;15.312;2023-02-08T03:26:01;-10.30;89.30
3648;DHT22;1840;48.892;15.312;2023-02-08T03:28:37;-10.40;89.30
3648;DHT22;1840;48.892;15.312;2023-02-08T03:31:12;-10.40;89.10
3648;DHT22;1840;48.892;15.312;2023-02-08T03:33:48;-10.40;88.70
3648;DHT22;1840;48.892;15.312;2023-02-08T03:36:22;-10.60;89.40
3648;DHT22;1840;48.892;15.312;2023-02-08T03:38:54;-10.50;90.10
3648;DHT22;1840;48.892;15.312;2023-02-08T03:41:27;-10.50;90.00
3648;DHT22;1840;48.892;15.312;2023-02-08T03:43:59;-10.70;90.50
3648;DHT22;1840;48.892;15.312;2023-02-08T03:46:30;-10.60;90.80
3648;DHT22;1840;48.892;15.312;2023-02-08T03:49:03;-10.40;90.90
3648;DHT22;1840;48.892;15.312;2023-02-08T03:51:34;-10.30;90.60
3648;DHT22;1840;48.892;15.312;2023-02-08T03:54:05;-10.30;90.80
3648;DHT22;1840;48.892;15.312;2023-02-08T03:56:37;-10.30;91.00
3648;DHT22;1840;48.892;15.312;2023-02-08T03:59:12;-10.20;91.00
3648;DHT22;1840;48.892;15.312;2023-02-08T04:01:45;-10.20;91.10
3648;DHT22;1840;48.892;15.312;2023-02-08T04:04:15;-10.20;91.30
3648;DHT22;1840;48.892;15.312;2023-02-08T04:06:46;-10.20;91.50
3648;DHT22;1840;48.892;15.312;2023-02-08T04:09:14;-10.10;91.30
3648;DHT22;1840;48.892;15.312;2023-02-08T04:11:42;-10.10;91.50
3648;DHT22;1840;48.892;15.312;2023-02-08T04:14:09;-10.00;91.80
3648;DHT22;1840;48.892;15.312;2023-02-08T04:16:37;-10.00;91.60
3648;DHT22;1840;48.892;15.312;2023-02-08T04:19:05;-9.80;91.70
3648;DHT22;1840;48.892;15.312;2023-02-08T04:21:33;-9.90;91.50
3648;DHT22;1840;48.892;15.312;2023-02-08T04:24:03;-9.80;91.70
3648;DHT22;1840;48.892;15.312;2023-02-08T04:26:31;-9.90;92.10
3648;DHT22;1840;48.892;15.312;2023-02-08T04:28:59;-9.70;91.80
3648;DHT22;1840;48.892;15.312;2023-02-08T04:31:27;-9.60;91.70
3648;DHT22;1840;48.892;15.312;2023-02-08T04:33:55;-9.50;91.50
3648;DHT22;1840;48.892;15.312;2023-02-08T04:36:23;-9.70;91.90
3648;DHT22;1840;48.892;15.312;2023-02-08T04:38:51;-9.60;91.90
3648;DHT22;1840;48.892;15.312;2023-02-08T04:41:20;-9.50;91.90
3648;DHT22;1840;48.892;15.312;2023-02-08T04:43:48;-9.30;91.80
3648;DHT22;1840;48.892;15.312;2023-02-08T04:46:16;-9.30;91.60
3648;DHT22;1840;48.892;15.312;2023-02-08T04:48:44;-9.60;92.00
3648;DHT22;1840;48.892;15.312;2023-02-08T04:51:12;-9.40;92.00
3648;DHT22;1840;48.892;15.312;2023-02-08T04:53:40;-9.50;91.90
3648;DHT22;1840;48.892;15.312;2023-02-08T04:56:08;-9.40;92.20
3648;DHT22;1840;48.892;15.312;2023-02-08T04:58:37;-9.30;92.20
3648;DHT22;1840;48.892;15.312;2023-02-08T05:01:06;-9.10;92.20
3648;DHT22;1840;48.892;15.312;2023-02-08T05:03:36;-9.00;92.10
3648;DHT22;1840;48.892;15.312;2023-02-08T05:06:05;-8.90;92.20
3648;DHT22;1840;48.892;15.312;2023-02-08T05:08:33;-8.80;92.10
3648;DHT22;1840;48.892;15.312;2023-02-08T05:11:01;-8.70;92.20
3648;DHT22;1840;48.892;15.312;2023-02-08T05:13:29;-8.80;92.20
3648;DHT22;1840;48.892;15.312;2023-02-08T05:15:59;-8.80;91.90
3648;DHT22;1840;48.892;15.312;2023-02-08T05:18:27;-8.70;92.20
3648;DHT22;1840;48.892;15.312;2023-02-08T05:20:56;-8.60;92.00
3648;DHT22;1840;48.892;15.312;2023-02-08T05:23:25;-8.60;92.10
3648;DHT22;1840;48.892;15.312;2023-02-08T05:25:53;-8.70;92.10
3648;DHT22;1840;48.892;15.312;2023-02-08T05:28:21;-8.50;92.40
3648;DHT22;1840;48.892;15.312;2023-02-08T05:30:49;-8.50;92.20
3648;DHT22;1840;48.892;15.312;2023-02-08T05:33:18;-8.50;92.20
3648;DHT22;1840;48.892;15.312;2023-02-08T05:35:46;-8.50;92.20
3648;DHT22;1840;48.892;15.312;2023-02-08T05:38:14;-8.50;92.20
3648;DHT22;1840;48.892;15.312;2023-02-08T05:40:42;-8.60;92.60
3648;DHT22;1840;48.892;15.312;2023-02-08T05:43:10;-8.60;92.60
3648;DHT22;1840;48.892;15.312;2023-02-08T05:45:38;-8.50;92.50
3648;DHT22;1840;48.892;15.312;2023-02-08T05:48:06;-8.30;92.70
3648;DHT22;1840;48.892;15.312;2023-02-08T05:50:35;-8.40;92.50
3648;DHT22;1840;48.892;15.312;2023-02-08T05:53:03;-8.40;92.80
3648;DHT22;1840;48.892;15.312;2023-02-08T05:55:31;-8.20;92.70
3648;DHT22;1840;48.892;15.312;2023-02-08T05:57:59;-8.10;92.60
3648;DHT22;1840;48.892;15.312;2023-02-08T06:00:27;-8.00;92.80
3648;DHT22;1840;48.892;15.312;2023-02-08T06:02:56;-8.00;92.60
3648;DHT22;1840;48.892;15.312;2023-02-08T06:05:26;-8.00;92.80
3648;DHT22;1840;48.892;15.312;2023-02-08T06:07:55;-8.00;92.90
3648;DHT22;1840;48.892;15.312;2023-02-08T06:10:23;-7.90;92.50
3648;DHT22;1840;48.892;15.312;2023-02-08T06:12:51;-8.10;92.60
3648;DHT22;1840;48.892;15.312;2023-02-08T06:15:21;-8.00;92.60
3648;DHT22;1840;48.892;15.312;2023-02-08T06:17:49;-8.00;92.80
3648;DHT22;1840;48.892;15.312;2023-02-08T06:20:17;-8.10;92.80
3648;DHT22;1840;48.892;15.312;2023-02-08T06:22:45;-8.10;92.80
3648;DHT22;1840;48.892;15.312;2023-02-08T06:25:15;-8.20;92.70
3648;DHT22;1840;48.892;15.312;2023-02-08T06:27:43;-8.10;93.20
3648;DHT22;1840;48.892;15.312;2023-02-08T06:30:11;-8.10;92.90
3648;DHT22;1840;48.892;15.312;2023-02-08T06:32:39;-8.20;92.90
3648;DHT22;1840;48.892;15.312;2023-02-08T06:35:07;-8.20;93.20
3648;DHT22;1840;48.892;15.312;2023-02-08T06:37:36;-8.20;93.40
3648;DHT22;1840;48.892;15.312;2023-02-08T06:40:04;-8.00;93.20
3648;DHT22;1840;48.892;15.312;2023-02-08T06:42:34;-8.00;92.80
3648;DHT22;1840;48.892;15.312;2023-02-08T06:45:03;-8.10;92.70
3648;DHT22;1840;48.892;15.312;2023-02-08T06:47:31;-8.10;93.10
3648;DHT22;1840;48.892;15.312;2023-02-08T06:49:59;-8.30;92.80
3648;DHT22;1840;48.892;15.312;2023-02-08T06:52:27;-8.10;93.40
3648;DHT22;1840;48.892;15.312;2023-02-08T06:54:55;-7.90;93.10
3648;DHT22;1840;48.892;15.312;2023-02-08T06:57:23;-7.90;92.70
3648;DHT22;1840;48.892;15.312;2023-02-08T06:59:53;-7.90;93.00
3648;DHT22;1840;48.892;15.312;2023-02-08T07:02:21;-8.00;92.90
3648;DHT22;1840;48.892;15.312;2023-02-08T07:04:49;-8.00;93.00
3648;DHT22;1840;48.892;15.312;2023-02-08T07:07:17;-7.90;92.90
3648;DHT22;1840;48.892;15.312;2023-02-08T07:09:46;-7.90;92.80
3648;DHT22;1840;48.892;15.312;2023-02-08T07:12:14;-7.80;93.00
3648;DHT22;1840;48.892;15.312;2023-02-08T07:14:42;-7.70;93.30
3648;DHT22;1840;48.892;15.312;2023-02-08T07:17:12;-7.50;93.30
3648;DHT22;1840;48.892;15.312;2023-02-08T07:19:40;-7.40;92.80
3648;DHT22;1840;48.892;15.312;2023-02-08T07:22:08;-7.40;93.00
3648;DHT22;1840;48.892;15.312;2023-02-08T07:24:39;-7.30;93.40
3648;DHT22;1840;48.892;15.312;2023-02-08T07:27:09;-7.10;93.00
3648;DHT22;1840;48.892;15.312;2023-02-08T07:29:37;-7.10;93.10
3648;DHT22;1840;48.892;15.312;2023-02-08T07:32:06;-6.90;93.00
3648;DHT22;1840;48.892;15.312;2023-02-08T07:34:36;-6.80;93.00
3648;DHT22;1840;48.892;15.312;2023-02-08T07:37:06;-6.80;92.90
3648;DHT22;1840;48.892;15.312;2023-02-08T07:39:34;-6.90;92.60
3648;DHT22;1840;48.892;15.312;2023-02-08T07:42:02;-7.00;92.70
3648;DHT22;1840;48.892;15.312;2023-02-08T07:44:32;-6.70;93.30
3648;DHT22;1840;48.892;15.312;2023-02-08T07:46:59;-6.50;93.00
3648;DHT22;1840;48.892;15.312;2023-02-08T07:49:28;-6.20;93.10
3648;DHT22;1840;48.892;15.312;2023-02-08T07:51:58;-6.20;92.80
3648;DHT22;1840;48.892;15.312;2023-02-08T07:54:26;-6.20;92.60
3648;DHT22;1840;48.892;15.312;2023-02-08T07:56:54;-6.10;93.00
3648;DHT22;1840;48.892;15.312;2023-02-08T07:59:22;-6.00;92.60
3648;DHT22;1840;48.892;15.312;2023-02-08T08:01:50;-5.80;93.00
3648;DHT22;1840;48.892;15.312;2023-02-08T08:04:18;-6.20;92.30
3648;DHT22;1840;48.892;15.312;2023-02-08T08:06:47;-6.30;92.70
3648;DHT22;1840;48.892;15.312;2023-02-08T08:09:18;-6.00;93.10
3648;DHT22;1840;48.892;15.312;2023-02-08T08:11:47;-5.80;92.70
3648;DHT22;1840;48.892;15.312;2023-02-08T08:14:15;-5.70;93.20
3648;DHT22;1840;48.892;15.312;2023-02-08T08:16:43;-5.30;93.00
3648;DHT22;1840;48.892;15.312;2023-02-08T08:19:11;-5.40;92.70
3648;DHT22;1840;48.892;15.312;2023-02-08T08:21:39;-5.40;93.00
3648;DHT22;1840;48.892;15.312;2023-02-08T08:24:07;-5.40;93.40
3648;DHT22;1840;48.892;15.312;2023-02-08T08:26:36;-5.00;93.40
3648;DHT22;1840;48.892;15.312;2023-02-08T08:29:04;-5.50;92.90
3648;DHT22;1840;48.892;15.312;2023-02-08T08:31:33;-6.10;93.40
3648;DHT22;1840;48.892;15.312;2023-02-08T08:34:01;-5.90;93.60
3648;DHT22;1840;48.892;15.312;2023-02-08T08:36:29;-5.40;94.20
3648;DHT22;1840;48.892;15.312;2023-02-08T08:38:57;-4.70;94.20
3648;DHT22;1840;48.892;15.312;2023-02-08T08:41:25;-4.30;92.70
3648;DHT22;1840;48.892;15.312;2023-02-08T08:43:55;-3.70;92.70
3648;DHT22;1840;48.892;15.312;2023-02-08T08:46:23;-3.90;91.60
3648;DHT22;1840;48.892;15.312;2023-02-08T08:48:51;-4.10;91.90
3648;DHT22;1840;48.892;15.312;2023-02-08T08:51:19;-4.20;91.80
3648;DHT22;1840;48.892;15.312;2023-02-08T08:53:47;-4.60;91.90
3648;DHT22;1840;48.892;15.312;2023-02-08T08:56:15;-5.10;91.80
3648;DHT22;1840;48.892;15.312;2023-02-08T08:58:43;-5.00;92.60
3648;DHT22;1840;48.892;15.312;2023-02-08T09:01:13;-5.50;92.50
3648;DHT22;1840;48.892;15.312;2023-02-08T09:03:41;-5.50;93.50
3648;DHT22;1840;48.892;15.312;2023-02-08T09:06:09;-5.80;92.90
3648;DHT22;1840;48.892;15.312;2023-02-08T09:08:37;-6.30;93.50
3648;DHT22;1840;48.892;15.312;2023-02-08T09:11:06;-6.10;94.50
3648;DHT22;1840;48.892;15.312;2023-02-08T09:13:35;-6.20;94.00
3648;DHT22;1840;48.892;15.312;2023-02-08T09:16:07;-6.00;94.20
3648;DHT22;1840;48.892;15.312;2023-02-08T09:18:37;-5.90;93.90
3648;DHT22;1840;48.892;15.312;2023-02-08T09:21:06;-5.30;94.40
3648;DHT22;1840;48.892;15.312;2023-02-08T09:23:34;-5.00;93.10
3648;DHT22;1840;48.892;15.312;2023-02-08T09:26:03;-4.90;92.70
3648;DHT22;1840;48.892;15.312;2023-02-08T09:28:31;-5.10;92.80
3648;DHT22;1840;48.892;15.312;2023-02-08T09:30:59;-5.40;93.00
3648;DHT22;1840;48.892;15.312;2023-02-08T09:33:33;-5.00;93.30
3648;DHT22;1840;48.892;15.312;2023-02-08T09:36:03;-4.80;92.40
3648;DHT22;1840;48.892;15.312;2023-02-08T09:38:31;-5.00;92.40
3648;DHT22;1840;48.892;15.312;2023-02-08T09:41:12;-4.50;93.00
3648;DHT22;1840;48.892;15.312;2023-02-08T09:43:47;-4.40;91.80
3648;DHT22;1840;48.892;15.312;2023-02-08T09:46:21;-4.40;92.10
3648;DHT22;1840;48.892;15.312;2023-02-08T09:48:51;-4.10;91.70
3648;DHT22;1840;48.892;15.312;2023-02-08T09:51:27;-3.80;91.70
3648;DHT22;1840;48.892;15.312;2023-02-08T09:54:01;-3.80;90.80
3648;DHT22;1840;48.892;15.312;2023-02-08T09:56:31;-3.70;90.80
3648;DHT22;1840;48.892;15.312;2023-02-08T09:59:02;-3.50;91.20
3648;DHT22;1840;48.892;15.312;2023-02-08T10:01:33;-3.60;90.30
3648;DHT22;1840;48.892;15.312;2023-02-08T10:04:06;-3.10;90.90
3648;DHT22;1840;48.892;15.312;2023-02-08T10:06:37;-3.10;90.40
3648;DHT22;1840;48.892;15.312;2023-02-08T10:09:08;-3.20;90.30
3648;DHT22;1840;48.892;15.312;2023-02-08T10:11:46;-3.10;90.00
3648;DHT22;1840;48.892;15.312;2023-02-08T10:14:38;-3.30;90.70
3648;DHT22;1840;48.892;15.312;2023-02-08T10:17:20;-3.30;90.50
3648;DHT22;1840;48.892;15.312;2023-02-08T10:20:00;-3.10;90.30
3648;DHT22;1840;48.892;15.312;2023-02-08T10:22:38;-3.00;90.80
3648;DHT22;1840;48.892;15.312;2023-02-08T10:25:29;-2.80;90.00
3648;DHT22;1840;48.892;15.312;2023-02-08T10:28:11;-2.90;90.80
3648;DHT22;1840;48.892;15.312;2023-02-08T10:30:46;-2.90;90.90
3648;DHT22;1840;48.892;15.312;2023-02-08T10:33:17;-2.50;90.40
3648;DHT22;1840;48.892;15.312;2023-02-08T10:35:48;-2.40;89.60
3648;DHT22;1840;48.892;15.312;2023-02-08T10:38:25;-2.30;88.80
3648;DHT22;1840;48.892;15.312;2023-02-08T10:41:16;-2.40;90.20
3648;DHT22;1840;48.892;15.312;2023-02-08T10:43:48;-2.10;89.10
3648;DHT22;1840;48.892;15.312;2023-02-08T10:46:23;-2.10;90.00
3648;DHT22;1840;48.892;15.312;2023-02-08T10:49:01;-1.60;88.70
3648;DHT22;1840;48.892;15.312;2023-02-08T10:51:30;-1.60;87.70
3648;DHT22;1840;48.892;15.312;2023-02-08T10:53:59;-1.60;88.20
3648;DHT22;1840;48.892;15.312;2023-02-08T10:56:35;-1.70;87.60
3648;DHT22;1840;48.892;15.312;2023-02-08T10:59:12;-1.90;87.20
3648;DHT22;1840;48.892;15.312;2023-02-08T11:01:41;-2.00;87.70
3648;DHT22;1840;48.892;15.312;2023-02-08T11:04:11;-2.10;88.60
3648;DHT22;1840;48.892;15.312;2023-02-08T11:06:41;-2.40;88.20
3648;DHT22;1840;48.892;15.312;2023-02-08T11:09:21;-2.80;89.50
3648;DHT22;1840;48.892;15.312;2023-02-08T11:11:50;-3.00;90.10
3648;DHT22;1840;48.892;15.312;2023-02-08T11:14:23;-2.80;90.20
3648;DHT22;1840;48.892;15.312;2023-02-08T11:17:03;-3.20;90.00
3648;DHT22;1840;48.892;15.312;2023-02-08T11:19:33;-3.60;90.10
3648;DHT22;1840;48.892;15.312;2023-02-08T11:22:03;-3.50;90.90
3648;DHT22;1840;48.892;15.312;2023-02-08T11:24:35;-3.10;90.60
3648;DHT22;1840;48.892;15.312;2023-02-08T11:27:16;-3.30;90.30
3648;DHT22;1840;48.892;15.312;2023-02-08T11:29:45;-3.00;90.10
3648;DHT22;1840;48.892;15.312;2023-02-08T11:32:16;-3.00;88.80
3648;DHT22;1840;48.892;15.312;2023-02-08T11:34:44;-3.10;88.30
3648;DHT22;1840;48.892;15.312;2023-02-08T11:37:14;-3.10;89.10
3648;DHT22;1840;48.892;15.312;2023-02-08T11:39:49;-3.40;88.20
3648;DHT22;1840;48.892;15.312;2023-02-08T11:42:22;-3.20;89.40
3648;DHT22;1840;48.892;15.312;2023-02-08T11:44:53;-3.00;88.70
3648;DHT22;1840;48.892;15.312;2023-02-08T11:47:24;-3.10;88.50
3648;DHT22;1840;48.892;15.312;2023-02-08T11:49:54;-3.00;88.80
3648;DHT22;1840;48.892;15.312;2023-02-08T11:52:24;-2.70;88.70
3648;DHT22;1840;48.892;15.312;2023-02-08T11:55:10;-3.10;88.60
3648;DHT22;1840;48.892;15.312;2023-02-08T11:57:50;-3.20;88.60
3648;DHT22;1840;48.892;15.312;2023-02-08T12:00:21;-3.10;89.30
3648;DHT22;1840;48.892;15.312;2023-02-08T12:02:54;-2.80;88.60
3648;DHT22;1840;48.892;15.312;2023-02-08T12:05:33;-2.80;87.60
3648;DHT22;1840;48.892;15.312;2023-02-08T12:08:08;-2.60;87.00
3648;DHT22;1840;48.892;15.312;2023-02-08T12:11:01;-2.90;87.50
3648;DHT22;1840;48.892;15.312;2023-02-08T12:13:52;-2.70;87.00
3648;DHT22;1840;48.892;15.312;2023-02-08T12:16:33;-2.70;86.90
3648;DHT22;1840;48.892;15.312;2023-02-08T12:19:23;-2.70;88.10
3648;DHT22;1840;48.892;15.312;2023-02-08T12:21:58;-2.70;87.40
3648;DHT22;1840;48.892;15.312;2023-02-08T12:24:36;-2.40;87.40
3648;DHT22;1840;48.892;15.312;2023-02-08T12:27:22;-2.50;86.50
3648;DHT22;1840;48.892;15.312;2023-02-08T12:30:01;-2.50;85.60
3648;DHT22;1840;48.892;15.312;2023-02-08T12:32:45;-2.50;84.80
3648;DHT22;1840;48.892;15.312;2023-02-08T12:35:31;-2.70;83.40
3648;DHT22;1840;48.892;15.312;2023-02-08T12:38:24;-3.00;83.40
3648;DHT22;1840;48.892;15.312;2023-02-08T12:41:20;-2.80;83.60
3648;DHT22;1840;48.892;15.312;2023-02-08T12:43:56;-2.80;83.10
3648;DHT22;1840;48.892;15.312;2023-02-08T12:46:49;-2.90;82.90
3648;DHT22;1840;48.892;15.312;2023-02-08T12:49:42;-2.70;83.30
3648;DHT22;1840;48.892;15.312;2023-02-08T12:52:23;-2.80;82.70
3648;DHT22;1840;48.892;15.312;2023-02-08T12:54:57;-3.00;83.00
3648;DHT22;1840;48.892;15.312;2023-02-08T12:57:28;-3.10;84.10
3648;DHT22;1840;48.892;15.312;2023-02-08T13:00:02;-3.10;84.90
3648;DHT22;1840;48.892;15.312;2023-02-08T13:02:34;-3.10;85.60
3648;DHT22;1840;48.892;15.312;2023-02-08T13:05:15;-3.10;82.60
3648;DHT22;1840;48.892;15.312;2023-02-08T13:07:45;-3.20;82.70
3648;DHT22;1840;48.892;15.312;2023-02-08T13:10:21;-3.30;83.90
3648;DHT22;1840;48.892;15.312;2023-02-08T13:12:55;-3.20;84.30
3648;DHT22;1840;48.892;15.312;2023-02-08T13:15:29;-2.90;83.40
3648;DHT22;1840;48.892;15.312;2023-02-08T13:18:01;-3.30;82.50
3648;DHT22;1840;48.892;15.312;2023-02-08T13:20:37;-3.50;82.60
3648;DHT22;1840;48.892;15.312;2023-02-08T13:23:14;-3.40;82.90
3648;DHT22;1840;48.892;15.312;2023-02-08T13:25:43;-3.50;83.00
3648;DHT22;1840;48.892;15.312;2023-02-08T13:28:17;-3.60;83.20
3648;DHT22;1840;48.892;15.312;2023-02-08T13:30:55;-3.60;84.30
3648;DHT22;1840;48.892;15.312;2023-02-08T13:33:33;-3.40;84.30
3648;DHT22;1840;48.892;15.312;2023-02-08T13:36:03;-3.40;84.80
3648;DHT22;1840;48.892;15.312;2023-02-08T13:38:33;-3.20;84.30
3648;DHT22;1840;48.892;15.312;2023-02-08T13:41:07;-3.40;83.30
3648;DHT22;1840;48.892;15.312;2023-02-08T13:43:42;-3.50;84.20
3648;DHT22;1840;48.892;15.312;2023-02-08T13:46:15;-3.60;83.50
3648;DHT22;1840;48.892;15.312;2023-02-08T13:48:46;-3.50;84.50
3648;DHT22;1840;48.892;15.312;2023-02-08T13:51:49;-3.30;84.00
3648;DHT22;1840;48.892;15.312;2023-02-08T13:54:17;-3.00;84.50
3648;DHT22;1840;48.892;15.312;2023-02-08T13:56:47;-3.10;84.40
3648;DHT22;1840;48.892;15.312;2023-02-08T13:59:33;-3.60;84.80
3648;DHT22;1840;48.892;15.312;2023-02-08T14:02:24;-3.60;85.90
3648;DHT22;1840;48.892;15.312;2023-02-08T14:04:58;-3.30;86.20
3648;DHT22;1840;48.892;15.312;2023-02-08T14:07:46;-3.40;86.30
3648;DHT22;1840;48.892;15.312;2023-02-08T14:10:27;-3.40;86.00
3648;DHT22;1840;48.892;15.312;2023-02-08T14:13:04;-3.60;86.80
3648;DHT22;1840;48.892;15.312;2023-02-08T14:15:41;-3.50;87.20
3648;DHT22;1840;48.892;15.312;2023-02-08T14:18:24;-3.40;86.90
3648;DHT22;1840;48.892;15.312;2023-02-08T14:21:02;-3.30;87.40
3648;DHT22;1840;48.892;15.312;2023-02-08T14:23:34;-3.50;86.70
3648;DHT22;1840;48.892;15.312;2023-02-08T14:26:08;-3.70;87.90
3648;DHT22;1840;48.892;15.312;2023-02-08T14:28:39;-3.70;89.30
3648;DHT22;1840;48.892;15.312;2023-02-08T14:31:11;-3.60;89.50
3648;DHT22;1840;48.892;15.312;2023-02-08T14:33:50;-3.90;90.00
3648;DHT22;1840;48.892;15.312;2023-02-08T14:36:26;-3.90;90.40
3648;DHT22;1840;48.892;15.312;2023-02-08T14:39:07;-4.00;90.20
3648;DHT22;1840;48.892;15.312;2023-02-08T14:41:47;-3.90;90.40
3648;DHT22;1840;48.892;15.312;2023-02-08T14:50:41;-4.10;90.70
3648;DHT22;1840;48.892;15.312;2023-02-08T14:53:25;-4.10;90.90
3648;DHT22;1840;48.892;15.312;2023-02-08T14:55:58;-3.90;90.70
3648;DHT22;1840;48.892;15.312;2023-02-08T14:58:30;-3.60;90.50
3648;DHT22;1840;48.892;15.312;2023-02-08T15:01:06;-3.60;90.50
3648;DHT22;1840;48.892;15.312;2023-02-08T15:03:34;-3.60;90.60
3648;DHT22;1840;48.892;15.312;2023-02-08T15:06:27;-3.50;90.50
3648;DHT22;1840;48.892;15.312;2023-02-08T15:08:57;-3.50;90.30
3648;DHT22;1840;48.892;15.312;2023-02-08T15:11:28;-3.50;90.50
3648;DHT22;1840;48.892;15.312;2023-02-08T15:13:59;-3.70;90.60
3648;DHT22;1840;48.892;15.312;2023-02-08T15:16:32;-3.80;90.50
3648;DHT22;1840;48.892;15.312;2023-02-08T15:19:02;-3.90;90.60
3648;DHT22;1840;48.892;15.312;2023-02-08T15:21:32;-4.40;90.90
3648;DHT22;1840;48.892;15.312;2023-02-08T15:24:04;-4.40;90.90
3648;DHT22;1840;48.892;15.312;2023-02-08T15:26:44;-4.40;91.20
3648;DHT22;1840;48.892;15.312;2023-02-08T15:29:19;-4.40;91.10
3648;DHT22;1840;48.892;15.312;2023-02-08T15:31:51;-4.50;91.30
3648;DHT22;1840;48.892;15.312;2023-02-08T15:34:23;-4.40;91.40
3648;DHT22;1840;48.892;15.312;2023-02-08T15:36:54;-4.30;91.00
3648;DHT22;1840;48.892;15.312;2023-02-08T15:39:33;-4.20;91.40
3648;DHT22;1840;48.892;15.312;2023-02-08T15:42:01;-3.90;91.00
3648;DHT22;1840;48.892;15.312;2023-02-08T15:44:31;-3.70;90.60
3648;DHT22;1840;48.892;15.312;2023-02-08T15:47:02;-3.80;90.40
3648;DHT22;1840;48.892;15.312;2023-02-08T15:49:34;-4.00;90.90
3648;DHT22;1840;48.892;15.312;2023-02-08T15:52:05;-4.30;90.90
3648;DHT22;1840;48.892;15.312;2023-02-08T15:54:34;-4.30;90.80
3648;DHT22;1840;48.892;15.312;2023-02-08T15:57:03;-4.50;91.00
3648;DHT22;1840;48.892;15.312;2023-02-08T15:59:37;-4.40;90.90
3648;DHT22;1840;48.892;15.312;2023-02-08T16:02:22;-4.60;90.80
3648;DHT22;1840;48.892;15.312;2023-02-08T16:04:50;-4.50;90.90
3648;DHT22;1840;48.892;15.312;2023-02-08T16:07:24;-4.40;90.70
3648;DHT22;1840;48.892;15.312;2023-02-08T16:09:55;-4.30;90.60
3648;DHT22;1840;48.892;15.312;2023-02-08T16:12:26;-4.50;90.80
3648;DHT22;1840;48.892;15.312;2023-02-08T16:14:56;-4.30;90.80
3648;DHT22;1840;48.892;15.312;2023-02-08T16:17:42;-4.20;90.40
3648;DHT22;1840;48.892;15.312;2023-02-08T16:20:22;-4.40;90.60
3648;DHT22;1840;48.892;15.312;2023-02-08T16:22:57;-4.40;90.70